Aérodrome :
LOGIN :

S'inscrire | Disclaimer

   EN    FR    IT 

 










Légende :    VFR   VFR Marginal   IFR   IFR Intensif   IFR Très Intensif
Visi : 
Plafond : 
>= 8 km
>= 3000ft
5 à 8 km
1000 à 3000 ft
1500m à 5 km
500 à 1000 ft
800 à 1500m
200 à 500 ft
< 800m
< 200 ft
Symboles :   Orages  Brouillard  Fortes neiges  Fortes précipitations  Vent > 20 kt
SIGMETs :   Divers  Orages  Givrage  Turbulence  Onde Orograph.  Cendres Volcan.






- Altitude de l'aérodrome : 7 ft
- Code IATA : VCE


LIPZ - Marco Polo Int. Venezia

DERNIER METAR :
  • 260450Z 32005KT 290V360 CAVOK 15/11 Q1016 NOSIG

METARs EXPIRÉS :
  • 260420Z 29004KT CAVOK 14/11 Q1016 NOSIG
  • 260350Z 27005KT CAVOK 13/12 Q1016 NOSIG
  • 260320Z 28002KT CAVOK 14/11 Q1016 NOSIG
  • 260250Z 25002KT CAVOK 14/12 Q1016 NOSIG
  • 260220Z 26004KT CAVOK 14/12 Q1016 NOSIG
  • 260150Z 28004KT CAVOK 14/12 Q1016 NOSIG
  • 260120Z 28003KT CAVOK 14/12 Q1016 NOSIG
  • 260050Z 27005KT 210V280 CAVOK 15/12 Q1016 NOSIG
  • 260020Z 28004KT CAVOK 15/12 Q1016 NOSIG

TAF TAF LIPZ
Valide du 26 à 00h jusqu'au 27 à 06h UTC


252300Z 2600/2706 VRB05KT CAVOK



MET'MAP, la Météo Aéronautique d'un coup d'oeil ! - Copyright ORBIFLY Décembre 2007 - Disclaimer

ORBIFLY MET'MAP TEAM :

Programmation & Développement : Alexandra Zaïnal
Sur une idée originale de : Baudouin d'Aumeries
Soutien technique & logistique : Manuel Goepfert
Assistance : Marc-Olivier Méhu




SOURCES & CREDITS :

   NOAA